createdAt,value
2022-12-23T00:00:48.857Z,0.00
2022-12-23T00:01:49.055Z,0.00
2022-12-23T00:02:49.077Z,0.00
2022-12-23T00:03:48.943Z,0.00
2022-12-23T00:04:48.965Z,0.00
2022-12-23T00:05:49.018Z,0.00
2022-12-23T00:06:48.980Z,0.00
2022-12-23T00:07:49.047Z,0.00
2022-12-23T00:08:49.086Z,0.00
2022-12-23T00:09:49.141Z,0.00
2022-12-23T00:10:49.151Z,0.00
2022-12-23T00:11:49.221Z,0.00
2022-12-23T00:12:49.279Z,0.00
2022-12-23T00:13:49.319Z,0.00
2022-12-23T00:14:49.371Z,0.00
2022-12-23T00:15:49.358Z,0.00
2022-12-23T00:16:49.441Z,0.00
2022-12-23T00:17:49.416Z,0.00
2022-12-23T00:18:49.420Z,0.00
2022-12-23T00:19:49.473Z,0.00
2022-12-23T00:20:49.516Z,0.00
2022-12-23T00:21:49.490Z,0.00
2022-12-23T00:22:49.483Z,0.00
2022-12-23T00:23:49.485Z,0.00
2022-12-23T00:24:49.503Z,0.00
2022-12-23T00:25:49.516Z,0.00
2022-12-23T00:26:49.574Z,0.00
2022-12-23T00:27:49.612Z,0.00
2022-12-23T00:28:49.674Z,0.00
2022-12-23T00:29:49.687Z,0.00
2022-12-23T00:30:49.756Z,0.00
2022-12-23T00:31:49.754Z,0.00
2022-12-23T00:32:49.787Z,0.00
2022-12-23T00:33:49.791Z,0.00
2022-12-23T00:34:49.810Z,0.00
2022-12-23T00:35:49.892Z,0.00
2022-12-23T00:36:49.857Z,0.00
2022-12-23T00:37:49.885Z,0.00
2022-12-23T00:38:49.909Z,0.00
2022-12-23T00:39:54.792Z,0.00
2022-12-23T00:40:50.001Z,0.00
2022-12-23T00:41:50.040Z,0.00
2022-12-23T00:42:50.068Z,0.00
2022-12-23T00:43:50.131Z,0.00
2022-12-23T00:44:50.129Z,0.00
2022-12-23T00:45:50.165Z,0.00
2022-12-23T00:46:50.218Z,0.00
2022-12-23T00:47:50.195Z,0.00
2022-12-23T00:48:50.240Z,0.00
2022-12-23T00:49:50.281Z,0.00
2022-12-23T00:50:50.341Z,0.00
2022-12-23T00:51:50.403Z,0.00
2022-12-23T00:52:50.482Z,0.00
2022-12-23T00:53:50.452Z,0.00
2022-12-23T00:54:50.461Z,0.00
2022-12-23T00:55:50.523Z,0.00
2022-12-23T00:56:50.554Z,0.00
2022-12-23T00:57:50.629Z,0.00
2022-12-23T00:58:50.636Z,0.00
2022-12-23T00:59:50.704Z,0.00
2022-12-23T01:00:50.799Z,0.00
2022-12-23T01:01:51.000Z,0.00
2022-12-23T01:02:50.916Z,0.00
2022-12-23T01:03:50.813Z,0.00
2022-12-23T01:04:50.825Z,0.00
2022-12-23T01:05:50.805Z,0.00
2022-12-23T01:06:50.818Z,0.00
2022-12-23T01:07:50.869Z,0.00
2022-12-23T01:08:50.854Z,0.00
2022-12-23T01:09:50.867Z,0.00
2022-12-23T01:10:50.915Z,0.00
2022-12-23T01:11:50.982Z,0.00
2022-12-23T01:12:50.955Z,0.00
2022-12-23T01:13:51.022Z,0.00
2022-12-23T01:14:51.027Z,0.00
2022-12-23T01:15:51.055Z,0.00
2022-12-23T01:16:51.079Z,0.00
2022-12-23T01:17:51.099Z,0.00
2022-12-23T01:18:51.106Z,0.00
2022-12-23T01:19:51.130Z,0.00
2022-12-23T01:20:51.200Z,0.00
2022-12-23T01:21:51.248Z,0.00
2022-12-23T01:22:51.251Z,0.00
2022-12-23T01:23:51.229Z,0.00
2022-12-23T01:24:51.228Z,0.00
2022-12-23T01:25:51.307Z,0.00
2022-12-23T01:26:51.298Z,0.00
2022-12-23T01:27:51.345Z,0.00
2022-12-23T01:28:51.398Z,0.00
2022-12-23T01:29:51.512Z,0.00
2022-12-23T01:30:51.468Z,0.00
2022-12-23T01:31:51.603Z,0.00
2022-12-23T01:32:51.586Z,0.00
2022-12-23T01:33:51.636Z,0.00
2022-12-23T01:34:51.689Z,0.00
2022-12-23T01:35:51.749Z,0.00
2022-12-23T01:36:51.744Z,0.00
2022-12-23T01:37:51.795Z,0.00
2022-12-23T01:38:51.833Z,0.00
2022-12-23T01:39:51.883Z,0.00
2022-12-23T01:40:51.972Z,0.00
2022-12-23T01:41:51.975Z,0.00
2022-12-23T01:42:52.025Z,0.00
2022-12-23T01:43:52.183Z,0.00
2022-12-23T01:44:52.136Z,0.00
2022-12-23T01:45:52.198Z,0.00
2022-12-23T01:46:52.165Z,0.00
2022-12-23T01:47:52.193Z,0.00
2022-12-23T01:48:52.204Z,0.00
2022-12-23T01:49:52.208Z,0.00
2022-12-23T01:50:52.196Z,0.00
2022-12-23T01:51:52.204Z,0.00
2022-12-23T01:52:52.276Z,0.00
2022-12-23T01:53:52.288Z,0.00
2022-12-23T01:54:52.340Z,0.00
2022-12-23T01:55:52.379Z,0.00
2022-12-23T01:56:52.381Z,0.00
2022-12-23T01:57:52.429Z,0.00
2022-12-23T01:58:52.459Z,0.00
2022-12-23T01:59:52.522Z,0.00
2022-12-23T02:00:52.545Z,0.00
2022-12-23T02:01:52.661Z,0.00
2022-12-23T02:02:52.815Z,0.00
2022-12-23T02:03:52.610Z,0.00
2022-12-23T02:04:52.639Z,0.00
2022-12-23T02:05:52.702Z,0.00
2022-12-23T02:06:52.700Z,0.00
2022-12-23T02:07:52.690Z,0.00
2022-12-23T02:08:52.731Z,0.00
2022-12-23T02:09:52.738Z,0.00
2022-12-23T02:10:52.812Z,0.00
2022-12-23T02:11:52.792Z,0.00
2022-12-23T02:12:52.835Z,0.00
2022-12-23T02:13:52.852Z,0.00
2022-12-23T02:14:52.911Z,0.00
2022-12-23T02:15:52.956Z,0.00
2022-12-23T02:16:53.073Z,0.00
2022-12-23T02:17:53.024Z,0.00
2022-12-23T02:18:53.052Z,0.00
2022-12-23T02:19:53.087Z,0.00
2022-12-23T02:20:53.085Z,0.00
2022-12-23T02:21:53.133Z,0.00
2022-12-23T02:22:53.155Z,0.00
2022-12-23T02:23:53.168Z,0.00
2022-12-23T02:24:53.196Z,0.00
2022-12-23T02:25:53.264Z,0.00
2022-12-23T02:26:53.256Z,0.00
2022-12-23T02:27:53.270Z,0.00
2022-12-23T02:28:53.315Z,0.00
2022-12-23T02:29:53.370Z,0.00
2022-12-23T02:30:53.410Z,0.00
2022-12-23T02:31:53.435Z,0.00
2022-12-23T02:32:53.488Z,0.00
2022-12-23T02:33:53.496Z,0.00
2022-12-23T02:34:53.497Z,0.00
2022-12-23T02:35:53.518Z,0.00
2022-12-23T02:36:53.550Z,0.00
2022-12-23T02:37:53.568Z,0.00
2022-12-23T02:38:53.652Z,0.00
2022-12-23T02:39:53.630Z,0.00
2022-12-23T02:40:53.640Z,0.00
2022-12-23T02:41:53.647Z,0.00
2022-12-23T02:42:53.698Z,0.00
2022-12-23T02:43:53.770Z,0.00
2022-12-23T02:44:53.771Z,0.00
2022-12-23T02:45:53.912Z,0.00
2022-12-23T02:46:53.820Z,0.00
2022-12-23T02:47:53.849Z,0.00
2022-12-23T02:48:53.860Z,0.00
2022-12-23T02:49:53.872Z,0.00
2022-12-23T02:50:53.893Z,0.00
2022-12-23T02:51:53.879Z,0.00
2022-12-23T02:52:53.930Z,0.00
2022-12-23T02:53:53.999Z,0.00
2022-12-23T02:54:53.963Z,0.00
2022-12-23T02:55:54.021Z,0.00
2022-12-23T02:56:54.049Z,0.00
2022-12-23T02:57:54.063Z,0.00
2022-12-23T02:58:54.122Z,0.00
2022-12-23T02:59:54.135Z,0.00
2022-12-23T03:00:54.175Z,0.00
2022-12-23T03:01:54.297Z,0.00
2022-12-23T03:02:54.317Z,0.00
2022-12-23T03:03:54.304Z,0.00
2022-12-23T03:04:54.323Z,0.00
2022-12-23T03:05:54.365Z,0.00
2022-12-23T03:06:54.432Z,0.00
2022-12-23T03:07:54.467Z,0.00
2022-12-23T03:08:54.486Z,0.00
2022-12-23T03:09:54.486Z,0.00
2022-12-23T03:10:54.497Z,0.00
2022-12-23T03:11:54.572Z,0.00
2022-12-23T03:12:54.579Z,0.00
2022-12-23T03:13:54.628Z,0.00
2022-12-23T03:14:54.648Z,0.00
2022-12-23T03:15:54.687Z,0.00
2022-12-23T03:16:54.746Z,0.00
2022-12-23T03:17:54.768Z,0.00
2022-12-23T03:18:54.828Z,0.00
2022-12-23T03:19:54.897Z,0.00
2022-12-23T03:20:54.915Z,0.00
2022-12-23T03:21:54.996Z,0.00
2022-12-23T03:22:54.978Z,0.00
2022-12-23T03:23:55.934Z,0.00
2022-12-23T03:24:55.079Z,0.00
2022-12-23T03:25:55.091Z,0.00
2022-12-23T03:26:55.124Z,0.00
2022-12-23T03:27:55.160Z,0.00
2022-12-23T03:28:55.168Z,0.00
2022-12-23T03:29:55.200Z,0.00
2022-12-23T03:30:55.277Z,0.00
2022-12-23T03:31:55.281Z,0.00
2022-12-23T03:32:55.291Z,0.00
2022-12-23T03:33:55.348Z,0.00
2022-12-23T03:34:55.351Z,0.00
2022-12-23T03:35:55.359Z,0.00
2022-12-23T03:36:55.367Z,0.00
2022-12-23T03:37:55.389Z,0.00
2022-12-23T03:38:55.404Z,0.00
2022-12-23T03:39:55.413Z,0.00
2022-12-23T03:40:55.444Z,0.00
2022-12-23T03:41:55.493Z,0.00
2022-12-23T03:42:55.537Z,0.00
2022-12-23T03:43:55.576Z,0.00
2022-12-23T03:45:19.702Z,0.00
2022-12-23T03:45:55.679Z,0.00
2022-12-23T03:46:55.656Z,0.00
2022-12-23T03:47:55.712Z,0.00
2022-12-23T03:48:55.695Z,0.00
2022-12-23T03:49:55.716Z,0.00
2022-12-23T03:50:55.752Z,0.00
2022-12-23T03:51:55.775Z,0.00
2022-12-23T03:52:55.802Z,0.00
2022-12-23T03:53:55.838Z,0.00
2022-12-23T03:54:55.928Z,0.00
2022-12-23T03:55:55.937Z,0.00
2022-12-23T03:56:55.947Z,0.00
2022-12-23T03:57:56.023Z,0.00
2022-12-23T03:58:56.060Z,0.00
2022-12-23T03:59:56.059Z,0.00
2022-12-23T04:00:56.147Z,0.00
2022-12-23T04:01:56.258Z,0.00
2022-12-23T04:02:56.251Z,0.00
2022-12-23T04:03:56.330Z,0.00
2022-12-23T04:04:56.229Z,0.00
2022-12-23T04:05:56.221Z,0.00
2022-12-23T04:06:56.251Z,0.00
2022-12-23T04:07:56.290Z,0.00
2022-12-23T04:08:56.300Z,0.00
2022-12-23T04:09:56.360Z,0.00
2022-12-23T04:10:56.344Z,0.00
2022-12-23T04:11:56.353Z,0.00
2022-12-23T04:12:56.346Z,0.00
2022-12-23T04:13:56.398Z,0.00
2022-12-23T04:14:56.473Z,0.00
2022-12-23T04:15:56.558Z,0.00
2022-12-23T04:16:56.521Z,0.00
2022-12-23T04:17:56.583Z,0.00
2022-12-23T04:18:56.576Z,0.00
2022-12-23T04:19:56.644Z,0.00
2022-12-23T04:20:56.682Z,0.00
2022-12-23T04:21:56.653Z,0.00
2022-12-23T04:22:56.665Z,0.00
2022-12-23T04:23:56.676Z,0.00
2022-12-23T04:24:56.717Z,0.00
2022-12-23T04:25:56.785Z,0.00
2022-12-23T04:26:56.827Z,0.00
2022-12-23T04:27:56.866Z,0.00
2022-12-23T04:28:56.867Z,0.00
2022-12-23T04:29:56.896Z,0.00
2022-12-23T04:30:56.992Z,0.00
2022-12-23T04:31:56.982Z,0.00
2022-12-23T04:32:56.956Z,0.00
2022-12-23T04:33:57.006Z,0.00
2022-12-23T04:34:57.018Z,0.00
2022-12-23T04:35:57.048Z,0.00
2022-12-23T04:36:57.103Z,0.00
2022-12-23T04:37:57.129Z,0.00
2022-12-23T04:38:57.128Z,0.00
2022-12-23T04:39:57.160Z,0.00
2022-12-23T04:40:57.169Z,0.00
2022-12-23T04:41:57.163Z,0.00
2022-12-23T04:42:57.162Z,0.00
2022-12-23T04:43:57.161Z,0.00
2022-12-23T04:44:57.168Z,0.00
2022-12-23T04:45:57.191Z,0.00
2022-12-23T04:46:57.298Z,0.00
2022-12-23T04:47:57.252Z,0.00
2022-12-23T04:48:57.383Z,0.00
2022-12-23T04:49:57.371Z,0.00
2022-12-23T04:50:57.391Z,0.00
2022-12-23T04:51:57.452Z,0.00
2022-12-23T04:52:57.514Z,0.00
2022-12-23T04:53:57.493Z,0.00
2022-12-23T04:54:57.485Z,0.00
2022-12-23T04:55:57.544Z,0.00
2022-12-23T04:56:57.542Z,0.00
2022-12-23T04:57:57.565Z,0.00
2022-12-23T04:58:57.571Z,0.00
2022-12-23T04:59:58.595Z,0.00
2022-12-23T05:00:57.736Z,0.00
2022-12-23T05:01:57.937Z,0.00
2022-12-23T05:02:57.848Z,0.00
2022-12-23T05:03:57.817Z,0.00
2022-12-23T05:04:57.876Z,0.00
2022-12-23T05:05:57.858Z,0.00
2022-12-23T05:06:57.952Z,0.00
2022-12-23T05:07:57.969Z,0.00
2022-12-23T05:08:58.029Z,0.00
2022-12-23T05:09:57.998Z,0.00
2022-12-23T05:10:58.045Z,0.00
2022-12-23T05:11:58.071Z,0.00
2022-12-23T05:12:58.099Z,0.00
2022-12-23T05:13:58.141Z,0.00
2022-12-23T05:14:58.125Z,0.00
2022-12-23T05:15:58.155Z,0.00
2022-12-23T05:17:03.560Z,0.00
2022-12-23T05:17:58.217Z,0.00
2022-12-23T05:18:58.241Z,0.00
2022-12-23T05:19:58.260Z,0.00
2022-12-23T05:20:58.320Z,0.00
2022-12-23T05:21:58.348Z,0.00
2022-12-23T05:22:58.341Z,0.00
2022-12-23T05:23:58.406Z,0.00
2022-12-23T05:24:58.451Z,0.00
2022-12-23T05:25:58.460Z,0.00
2022-12-23T05:27:00.325Z,0.00
2022-12-23T05:27:58.490Z,0.00
2022-12-23T05:28:58.522Z,0.00
2022-12-23T05:29:58.537Z,0.00
2022-12-23T05:30:58.593Z,0.00
2022-12-23T05:31:58.735Z,0.00
2022-12-23T05:32:58.805Z,0.00
2022-12-23T05:34:05.742Z,0.00
2022-12-23T05:34:58.765Z,0.00
2022-12-23T05:35:58.810Z,0.00
2022-12-23T05:36:58.815Z,0.00
2022-12-23T05:37:58.797Z,0.00
2022-12-23T05:38:58.787Z,0.00
2022-12-23T05:39:58.832Z,0.00
2022-12-23T05:40:58.838Z,0.00
2022-12-23T05:41:58.900Z,0.00
2022-12-23T05:42:58.932Z,0.00
2022-12-23T05:43:58.986Z,0.00
2022-12-23T05:44:58.966Z,0.00
2022-12-23T05:45:59.057Z,0.00
2022-12-23T05:46:59.018Z,0.00
2022-12-23T05:47:59.015Z,0.00
2022-12-23T05:48:59.039Z,0.00
2022-12-23T05:49:59.090Z,0.00
2022-12-23T05:50:59.088Z,0.00
2022-12-23T05:51:59.077Z,0.00
2022-12-23T05:52:59.091Z,0.00
2022-12-23T05:53:59.131Z,0.00
2022-12-23T05:54:59.129Z,0.00
2022-12-23T05:55:59.170Z,0.00
2022-12-23T05:56:59.195Z,0.00
2022-12-23T05:57:59.220Z,0.00
2022-12-23T05:58:59.262Z,0.00
2022-12-23T05:59:59.279Z,0.00
2022-12-23T06:00:59.305Z,0.00
2022-12-23T06:01:59.575Z,0.00
2022-12-23T06:02:59.588Z,0.00
2022-12-23T06:03:59.641Z,0.00
2022-12-23T06:04:59.344Z,0.00
2022-12-23T06:05:59.352Z,0.00
2022-12-23T06:06:59.432Z,0.00
2022-12-23T06:07:59.488Z,0.00
2022-12-23T06:09:00.319Z,0.00
2022-12-23T06:09:59.565Z,0.00
2022-12-23T06:10:59.584Z,0.00
2022-12-23T06:11:59.583Z,0.00
2022-12-23T06:12:59.590Z,0.00
2022-12-23T06:13:59.634Z,0.00
2022-12-23T06:14:59.631Z,0.00
2022-12-23T06:15:59.687Z,0.00
2022-12-23T06:16:59.768Z,0.00
2022-12-23T06:17:59.764Z,0.00
2022-12-23T06:18:59.845Z,0.00
2022-12-23T06:19:59.876Z,0.00
2022-12-23T06:20:59.887Z,0.00
2022-12-23T06:21:59.957Z,0.00
2022-12-23T06:22:59.981Z,0.00
2022-12-23T06:24:00.000Z,0.00
2022-12-23T06:25:00.042Z,0.00
2022-12-23T06:26:00.072Z,0.00
2022-12-23T06:27:00.139Z,0.00
2022-12-23T06:28:00.145Z,0.00
2022-12-23T06:29:00.157Z,0.00
2022-12-23T06:30:00.206Z,0.00
2022-12-23T06:31:00.267Z,0.00
2022-12-23T06:32:00.475Z,0.00
2022-12-23T06:33:00.321Z,0.00
2022-12-23T06:34:00.379Z,0.00
2022-12-23T06:35:00.386Z,0.00
2022-12-23T06:36:00.388Z,0.00
2022-12-23T06:37:00.443Z,0.00
2022-12-23T06:38:00.456Z,0.00
2022-12-23T06:39:00.497Z,0.00
2022-12-23T06:40:00.505Z,0.00
2022-12-23T06:41:00.544Z,0.00
2022-12-23T06:42:00.536Z,0.00
2022-12-23T06:43:00.529Z,0.00
2022-12-23T06:44:00.614Z,0.00
2022-12-23T06:45:00.639Z,0.00
2022-12-23T06:46:00.705Z,0.00
2022-12-23T06:47:00.753Z,0.00
2022-12-23T06:48:00.806Z,0.00
2022-12-23T06:49:00.856Z,0.00
2022-12-23T06:50:00.903Z,0.00
2022-12-23T06:51:00.973Z,0.00
2022-12-23T06:52:00.937Z,0.00
2022-12-23T06:53:01.011Z,0.00
2022-12-23T06:54:00.994Z,0.00
2022-12-23T06:55:01.044Z,0.00
2022-12-23T06:56:01.161Z,0.00
2022-12-23T06:57:01.154Z,0.00
2022-12-23T06:58:01.178Z,0.00
2022-12-23T06:59:01.215Z,4.00
2022-12-23T07:00:01.223Z,0.00
2022-12-23T07:01:01.220Z,0.00
2022-12-23T07:02:01.477Z,4.00
2022-12-23T07:03:01.392Z,4.00
2022-12-23T07:04:01.276Z,0.00
2022-12-23T07:05:01.335Z,0.00
2022-12-23T07:06:01.436Z,4.00
2022-12-23T07:07:01.371Z,4.00
2022-12-23T07:08:01.434Z,4.00
2022-12-23T07:09:01.524Z,4.00
2022-12-23T07:10:01.477Z,8.00
2022-12-23T07:11:01.565Z,8.00
2022-12-23T07:12:01.559Z,8.00
2022-12-23T07:13:01.585Z,12.00
2022-12-23T07:14:01.548Z,12.00
2022-12-23T07:15:01.649Z,12.00
2022-12-23T07:16:01.642Z,8.00
2022-12-23T07:17:01.749Z,12.00
2022-12-23T07:18:01.704Z,16.00
2022-12-23T07:19:01.700Z,16.00
2022-12-23T07:20:01.811Z,24.00
2022-12-23T07:21:01.752Z,24.00
2022-12-23T07:22:01.833Z,28.00
2022-12-23T07:23:01.753Z,28.00
2022-12-23T07:24:01.756Z,36.00
2022-12-23T07:25:01.772Z,40.00
2022-12-23T07:26:01.778Z,36.00
2022-12-23T07:27:01.830Z,44.00
2022-12-23T07:28:01.816Z,44.00
2022-12-23T07:29:01.802Z,44.00
2022-12-23T07:30:01.857Z,44.00
2022-12-23T07:31:01.887Z,56.00
2022-12-23T07:32:01.970Z,72.00
2022-12-23T07:33:01.887Z,88.00
2022-12-23T07:34:01.943Z,116.00
2022-12-23T07:35:02.023Z,136.00
2022-12-23T07:36:02.033Z,156.00
2022-12-23T07:37:02.108Z,168.00
2022-12-23T07:38:02.162Z,180.00
2022-12-23T07:39:02.846Z,188.00
2022-12-23T07:40:08.311Z,172.00
2022-12-23T07:41:02.331Z,188.00
2022-12-23T07:42:42.894Z,192.00
2022-12-23T07:43:02.447Z,200.00
2022-12-23T07:44:02.428Z,204.00
2022-12-23T07:45:02.404Z,208.00
2022-12-23T07:46:02.549Z,220.00
2022-12-23T07:47:02.482Z,224.00
2022-12-23T07:48:02.567Z,248.00
2022-12-23T07:49:02.576Z,288.00
2022-12-23T07:50:02.585Z,300.00
2022-12-23T07:51:02.621Z,360.00
2022-12-23T07:52:02.665Z,384.00
2022-12-23T07:53:02.703Z,400.00
2022-12-23T07:54:02.743Z,436.00
2022-12-23T07:55:02.789Z,508.00
2022-12-23T07:56:02.817Z,532.00
2022-12-23T07:57:02.820Z,544.00
2022-12-23T07:58:02.806Z,608.00
2022-12-23T07:59:02.830Z,760.00
2022-12-23T08:00:03.078Z,828.00
2022-12-23T08:01:03.039Z,836.00
2022-12-23T08:02:03.100Z,872.00
2022-12-23T08:03:03.166Z,872.00
2022-12-23T08:04:03.021Z,852.00
2022-12-23T08:05:03.060Z,896.00
2022-12-23T08:06:03.046Z,888.00
2022-12-23T08:07:03.033Z,864.00
2022-12-23T08:08:03.037Z,884.00
2022-12-23T08:09:03.051Z,804.00
2022-12-23T08:10:03.108Z,832.00
2022-12-23T08:11:03.154Z,756.00
2022-12-23T08:12:03.189Z,748.00
2022-12-23T08:13:03.218Z,728.00
2022-12-23T08:14:03.249Z,708.00
2022-12-23T08:15:03.282Z,660.00
2022-12-23T08:16:03.291Z,716.00
2022-12-23T08:17:03.337Z,736.00
2022-12-23T08:18:03.327Z,764.00
2022-12-23T08:19:03.353Z,716.00
2022-12-23T08:20:03.393Z,768.00
2022-12-23T08:21:03.425Z,780.00
2022-12-23T08:22:03.484Z,780.00
2022-12-23T08:23:03.525Z,828.00
2022-12-23T08:24:03.554Z,792.00
2022-12-23T08:25:03.597Z,776.00
2022-12-23T08:26:03.640Z,852.00
2022-12-23T08:27:03.680Z,840.00
2022-12-23T08:28:03.707Z,728.00
2022-12-23T08:29:03.770Z,716.00
2022-12-23T08:30:03.794Z,648.00
2022-12-23T08:31:03.891Z,644.00
2022-12-23T08:32:03.817Z,676.00
2022-12-23T08:33:03.828Z,664.00
2022-12-23T08:34:03.821Z,680.00
2022-12-23T08:35:03.907Z,712.00
2022-12-23T08:36:03.950Z,716.00
2022-12-23T08:37:04.005Z,708.00
2022-12-23T08:38:03.980Z,620.00
2022-12-23T08:39:03.990Z,540.00
2022-12-23T08:40:03.979Z,568.00
2022-12-23T08:41:03.979Z,580.00
2022-12-23T08:42:04.048Z,568.00
2022-12-23T08:43:04.082Z,568.00
2022-12-23T08:44:04.120Z,588.00
2022-12-23T08:45:04.114Z,616.00
2022-12-23T08:46:04.139Z,644.00
2022-12-23T08:47:04.163Z,680.00
2022-12-23T08:48:04.193Z,736.00
2022-12-23T08:49:04.192Z,884.00
2022-12-23T08:50:04.212Z,760.00
2022-12-23T08:51:04.241Z,716.00
2022-12-23T08:52:04.271Z,800.00
2022-12-23T08:53:04.256Z,896.00
2022-12-23T08:54:04.244Z,896.00
2022-12-23T08:55:04.306Z,912.00
2022-12-23T08:56:04.388Z,864.00
2022-12-23T08:57:04.386Z,880.00
2022-12-23T08:58:04.394Z,928.00
2022-12-23T08:59:04.391Z,904.00
2022-12-23T09:00:04.413Z,1012.00
2022-12-23T09:01:04.476Z,1176.00
2022-12-23T09:02:04.518Z,1384.00
2022-12-23T09:03:04.630Z,1384.00
2022-12-23T09:04:04.581Z,1468.00
2022-12-23T09:05:04.508Z,1376.00
2022-12-23T09:06:04.565Z,1304.00
2022-12-23T09:07:04.573Z,1164.00
2022-12-23T09:08:04.577Z,1204.00
2022-12-23T09:09:04.591Z,1176.00
2022-12-23T09:10:04.648Z,1320.00
2022-12-23T09:11:04.625Z,1640.00
2022-12-23T09:12:04.696Z,1744.00
2022-12-23T09:13:04.655Z,1748.00
2022-12-23T09:14:04.699Z,1624.00
2022-12-23T09:15:04.723Z,1472.00
2022-12-23T09:16:04.802Z,1432.00
2022-12-23T09:17:04.799Z,1256.00
2022-12-23T09:18:04.789Z,1248.00
2022-12-23T09:19:04.897Z,1356.00
2022-12-23T09:20:04.853Z,1648.00
2022-12-23T09:21:04.880Z,1728.00
2022-12-23T09:22:04.904Z,1752.00
2022-12-23T09:23:04.926Z,1504.00
2022-12-23T09:24:04.977Z,1672.00
2022-12-23T09:25:05.617Z,1588.00
2022-12-23T09:26:05.034Z,1576.00
2022-12-23T09:27:05.036Z,1484.00
2022-12-23T09:28:05.080Z,1632.00
2022-12-23T09:29:05.106Z,1536.00
2022-12-23T09:30:05.144Z,1772.00
2022-12-23T09:31:05.176Z,1784.00
2022-12-23T09:32:05.180Z,1644.00
2022-12-23T09:33:05.214Z,1760.00
2022-12-23T09:34:05.289Z,1640.00
2022-12-23T09:35:05.253Z,1668.00
2022-12-23T09:36:05.315Z,1684.00
2022-12-23T09:37:05.375Z,1724.00
2022-12-23T09:38:05.386Z,1728.00
2022-12-23T09:39:05.458Z,1648.00
2022-12-23T09:40:05.415Z,1672.00
2022-12-23T09:41:05.408Z,1636.00
2022-12-23T09:42:05.436Z,1748.00
2022-12-23T09:43:05.436Z,1760.00
2022-12-23T09:44:05.488Z,1908.00
2022-12-23T09:45:05.528Z,1912.00
2022-12-23T09:46:05.584Z,2048.00
2022-12-23T09:47:05.651Z,2092.00
2022-12-23T09:48:05.618Z,2336.00
2022-12-23T09:49:05.609Z,2392.00
2022-12-23T09:50:05.634Z,2624.00
2022-12-23T09:51:05.690Z,2648.00
2022-12-23T09:52:05.784Z,2824.00
2022-12-23T09:53:05.787Z,2972.00
2022-12-23T09:54:05.827Z,2700.00
2022-12-23T09:55:05.880Z,2916.00
2022-12-23T09:56:05.875Z,2864.00
2022-12-23T09:57:05.894Z,2724.00
2022-12-23T09:58:05.892Z,2836.00
2022-12-23T09:59:05.919Z,2680.00
2022-12-23T10:00:05.883Z,2512.00
2022-12-23T10:01:05.945Z,2448.00
2022-12-23T10:02:06.020Z,2352.00
2022-12-23T10:03:06.136Z,2416.00
2022-12-23T10:04:06.048Z,2260.00
2022-12-23T10:05:06.044Z,2324.00
2022-12-23T10:06:06.025Z,2424.00
2022-12-23T10:07:06.051Z,1948.00
2022-12-23T10:08:06.100Z,1972.00
2022-12-23T10:09:06.172Z,1928.00
2022-12-23T10:10:06.238Z,1840.00
2022-12-23T10:11:06.327Z,1872.00
2022-12-23T10:12:06.275Z,1684.00
2022-12-23T10:13:06.264Z,1748.00
2022-12-23T10:14:06.295Z,2044.00
2022-12-23T10:15:06.335Z,1872.00
2022-12-23T10:16:06.426Z,1884.00
2022-12-23T10:17:06.433Z,1808.00
2022-12-23T10:18:06.431Z,1884.00
2022-12-23T10:19:06.477Z,1908.00
2022-12-23T10:20:06.526Z,2088.00
2022-12-23T10:21:06.541Z,2496.00
2022-12-23T10:22:06.606Z,2960.00
2022-12-23T10:23:06.594Z,3092.00
2022-12-23T10:24:06.654Z,3172.00
2022-12-23T10:25:06.659Z,2768.00
2022-12-23T10:26:06.715Z,2808.00
2022-12-23T10:27:06.775Z,2692.00
2022-12-23T10:28:06.799Z,2540.00
2022-12-23T10:29:06.810Z,2532.00
2022-12-23T10:30:33.720Z,2348.00
2022-12-23T10:32:07.001Z,2528.00
2022-12-23T10:33:06.931Z,2512.00
2022-12-23T10:34:06.956Z,2648.00
2022-12-23T10:35:06.960Z,2812.00
2022-12-23T10:36:07.064Z,3236.00
2022-12-23T10:37:07.195Z,3184.00
2022-12-23T10:38:07.065Z,3364.00
2022-12-23T10:39:07.144Z,3388.00
2022-12-23T10:40:07.127Z,3528.00
2022-12-23T10:41:09.483Z,3712.00
2022-12-23T10:42:07.181Z,3776.00
2022-12-23T10:43:07.166Z,4084.00
2022-12-23T10:44:07.267Z,4032.00
2022-12-23T10:45:07.259Z,4304.00
2022-12-23T10:46:07.391Z,4400.00
2022-12-23T10:47:07.374Z,4360.00
2022-12-23T10:48:11.952Z,4456.00
2022-12-23T10:49:07.306Z,4920.00
2022-12-23T10:50:07.295Z,5020.00
2022-12-23T10:51:07.317Z,4916.00
2022-12-23T10:52:07.376Z,5020.00
2022-12-23T10:53:07.454Z,4960.00
2022-12-23T10:54:07.472Z,5112.00
2022-12-23T10:55:07.507Z,4780.00
2022-12-23T10:56:07.614Z,4848.00
2022-12-23T10:57:07.623Z,4592.00
2022-12-23T10:58:07.699Z,4112.00
2022-12-23T10:59:07.722Z,3892.00
2022-12-23T11:00:07.731Z,3904.00
2022-12-23T11:01:14.156Z,4044.00
2022-12-23T11:02:07.927Z,3968.00
2022-12-23T11:03:07.892Z,4156.00
2022-12-23T11:04:07.814Z,4328.00
2022-12-23T11:05:07.790Z,4336.00
2022-12-23T11:06:07.785Z,4252.00
2022-12-23T11:07:41.970Z,3824.00
2022-12-23T11:08:07.764Z,3700.00
2022-12-23T11:09:07.761Z,3592.00
2022-12-23T11:10:07.787Z,3632.00
2022-12-23T11:11:07.792Z,3536.00
2022-12-23T11:12:07.858Z,3500.00
2022-12-23T11:13:07.927Z,3424.00
2022-12-23T11:14:07.913Z,3384.00
2022-12-23T11:15:07.950Z,3680.00
2022-12-23T11:16:07.982Z,3768.00
2022-12-23T11:17:07.924Z,3736.00
2022-12-23T11:18:07.915Z,3520.00
2022-12-23T11:19:07.939Z,3372.00
2022-12-23T11:20:07.937Z,3056.00
2022-12-23T11:21:07.918Z,2784.00
2022-12-23T11:22:07.976Z,2772.00
2022-12-23T11:23:08.039Z,2672.00
2022-12-23T11:24:08.103Z,2696.00
2022-12-23T11:25:08.097Z,2496.00
2022-12-23T11:26:08.139Z,2500.00
2022-12-23T11:27:08.140Z,2552.00
2022-12-23T11:28:08.947Z,2396.00
2022-12-23T11:29:09.046Z,2356.00
2022-12-23T11:30:08.382Z,2168.00
2022-12-23T11:31:08.460Z,2188.00
2022-12-23T11:32:08.409Z,2140.00
2022-12-23T11:33:08.378Z,1904.00
2022-12-23T11:34:08.411Z,1892.00
2022-12-23T11:35:08.635Z,1888.00
2022-12-23T11:36:08.459Z,2100.00
2022-12-23T11:37:08.519Z,2352.00
2022-12-23T11:38:08.510Z,2360.00
2022-12-23T11:39:08.512Z,2556.00
2022-12-23T11:40:08.583Z,2700.00
2022-12-23T11:41:08.598Z,2776.00
2022-12-23T11:42:08.616Z,2800.00
2022-12-23T11:43:08.585Z,2856.00
2022-12-23T11:44:08.633Z,2808.00
2022-12-23T11:45:08.687Z,2808.00
2022-12-23T11:46:08.838Z,2728.00
2022-12-23T11:47:08.829Z,2748.00
2022-12-23T11:48:08.795Z,2928.00
2022-12-23T11:49:08.803Z,2928.00
2022-12-23T11:50:08.807Z,3044.00
2022-12-23T11:51:08.851Z,2824.00
2022-12-23T11:52:08.871Z,2936.00
2022-12-23T11:53:08.880Z,2960.00
2022-12-23T11:54:08.886Z,2944.00
2022-12-23T11:55:08.986Z,3252.00
2022-12-23T11:56:09.005Z,3236.00
2022-12-23T11:57:09.045Z,3368.00
2022-12-23T11:58:09.037Z,3256.00
2022-12-23T11:59:09.112Z,3380.00
2022-12-23T12:00:09.166Z,3484.00
2022-12-23T12:01:09.236Z,3488.00
2022-12-23T12:02:09.332Z,3352.00
2022-12-23T12:03:09.363Z,3476.00
2022-12-23T12:04:09.343Z,3448.00
2022-12-23T12:05:09.350Z,3316.00
2022-12-23T12:06:09.366Z,3176.00
2022-12-23T12:07:09.379Z,3144.00
2022-12-23T12:08:09.450Z,3092.00
2022-12-23T12:09:09.519Z,2876.00
2022-12-23T12:10:09.602Z,2788.00
2022-12-23T12:11:09.580Z,2536.00
2022-12-23T12:12:09.571Z,2476.00
2022-12-23T12:13:09.580Z,2372.00
2022-12-23T12:14:09.639Z,2420.00
2022-12-23T12:15:09.687Z,2436.00
2022-12-23T12:16:09.763Z,2264.00
2022-12-23T12:17:09.856Z,2276.00
2022-12-23T12:18:09.836Z,2264.00
2022-12-23T12:19:09.899Z,2072.00
2022-12-23T12:20:10.001Z,2132.00
2022-12-23T12:21:09.952Z,1948.00
2022-12-23T12:22:10.013Z,2004.00
2022-12-23T12:23:10.002Z,1936.00
2022-12-23T12:24:19.243Z,1892.00
2022-12-23T12:25:10.095Z,1836.00
2022-12-23T12:26:10.169Z,1992.00
2022-12-23T12:27:10.309Z,1912.00
2022-12-23T12:28:10.294Z,1836.00
2022-12-23T12:29:10.305Z,1864.00
2022-12-23T12:30:10.316Z,1676.00
2022-12-23T12:31:10.435Z,1652.00
2022-12-23T12:32:10.432Z,1480.00
2022-12-23T12:33:10.466Z,1500.00
2022-12-23T12:34:10.507Z,1380.00
2022-12-23T12:35:10.523Z,1236.00
2022-12-23T12:36:10.625Z,1068.00
2022-12-23T12:37:10.622Z,1016.00
2022-12-23T12:38:10.740Z,944.00
2022-12-23T12:39:10.648Z,900.00
2022-12-23T12:40:10.648Z,828.00
2022-12-23T12:41:10.658Z,836.00
2022-12-23T12:42:10.699Z,960.00
2022-12-23T12:43:10.689Z,940.00
2022-12-23T12:44:10.683Z,896.00
2022-12-23T12:45:10.691Z,848.00
2022-12-23T12:46:10.823Z,852.00
2022-12-23T12:47:28.475Z,748.00
2022-12-23T12:48:18.321Z,784.00
2022-12-23T12:49:10.824Z,816.00
2022-12-23T12:50:10.871Z,780.00
2022-12-23T12:51:10.913Z,844.00